Time;durP1;ratioP1;P1;durP2;ratioP2;P2;SDS_P1;SDS_P2;PMS_P1;PMS_P2;Temp;Humidity;BMP_temperature;BMP_pressure;BME280_temperature;BME280_humidity;BME280_pressure;Samples;Min_cycle;Max_cycle;Signal;HPM_P1;HPM_P2
2022/04/13 00:00:35;;;;;;;12.57;5.80;;;;;;;13.61;84.56;98947.84;5015620;28;20215;-83
2022/04/13 00:03:02;;;;;;;8.95;5.88;;;;;;;13.70;84.11;98936.31;5015648;28;20267;-83
2022/04/13 00:05:28;;;;;;;8.30;6.40;;;;;;;13.72;82.28;98933.47;5015892;28;20597;-83
2022/04/13 00:07:55;;;;;;;7.68;5.30;;;;;;;13.61;82.95;98933.47;5016052;28;20204;-82
2022/04/13 00:10:22;;;;;;;8.00;4.85;;;;;;;13.49;83.35;98930.78;5015978;28;20217;-83
2022/04/13 00:12:48;;;;;;;6.68;4.38;;;;;;;13.59;81.33;98932.72;5015859;28;20193;-84
2022/04/13 00:15:15;;;;;;;6.22;4.38;;;;;;;13.76;80.57;98933.09;5015597;28;20252;-83
2022/04/13 00:17:43;;;;;;;7.85;5.30;;;;;;;13.79;80.09;98940.09;5015547;28;20625;-82
2022/04/13 00:20:11;;;;;;;9.00;4.70;;;;;;;13.74;80.36;98942.31;5015312;28;20202;-83
2022/04/13 00:22:37;;;;;;;7.35;4.70;;;;;;;13.58;81.20;98936.44;5015672;28;20296;-83
2022/04/13 00:25:04;;;;;;;7.70;4.40;;;;;;;13.56;81.33;98941.97;5015425;28;20284;-83
2022/04/13 00:27:31;;;;;;;8.30;5.38;;;;;;;13.51;82.25;98945.03;5015751;28;20216;-83
2022/04/13 00:29:57;;;;;;;9.27;5.35;;;;;;;13.37;82.53;98944.44;5015300;28;20189;-83
2022/04/13 00:32:25;;;;;;;7.20;5.15;;;;;;;13.25;84.39;98957.03;5015370;28;20247;-83
2022/04/13 00:34:54;;;;;;;9.50;5.60;;;;;;;13.15;86.63;98965.88;5015377;28;20708;-83
2022/04/13 00:37:21;;;;;;;7.13;5.30;;;;;;;13.45;84.55;98963.59;5015105;28;20185;-83
2022/04/13 00:39:47;;;;;;;7.63;5.90;;;;;;;13.26;86.00;98966.91;5015190;28;20731;-83
2022/04/13 00:42:16;;;;;;;6.75;5.40;;;;;;;13.15;88.52;98968.59;5015352;28;20189;-83
2022/04/13 00:44:43;;;;;;;7.47;5.40;;;;;;;13.32;88.25;98969.16;5015332;28;20192;-83
2022/04/13 00:47:10;;;;;;;9.68;5.50;;;;;;;13.22;88.96;98973.50;5015096;28;20651;-83
2022/04/13 00:49:37;;;;;;;9.85;5.57;;;;;;;12.95;91.75;98972.00;5015155;28;20678;-83
2022/04/13 00:52:06;;;;;;;6.93;5.88;;;;;;;12.91;91.66;98976.78;5015125;28;20186;-83
2022/04/13 00:54:35;;;;;;;6.88;5.43;;;;;;;12.93;91.31;98982.94;5014754;28;20231;-83
2022/04/13 00:57:09;;;;;;;7.22;5.72;;;;;;;12.90;91.25;98979.59;5015089;28;20195;-83
2022/04/13 00:59:38;;;;;;;8.88;5.60;;;;;;;12.84;91.21;98980.91;5014648;28;20188;-83
2022/04/13 01:02:07;;;;;;;7.85;5.55;;;;;;;12.82;91.83;98982.03;5014548;28;20199;-83
2022/04/13 01:04:36;;;;;;;8.13;5.60;;;;;;;12.88;90.97;98982.41;5015598;28;20199;-83
2022/04/13 01:07:07;;;;;;;10.70;5.40;;;;;;;12.89;90.41;98989.56;5014738;28;20647;-84
2022/04/13 01:09:34;;;;;;;10.88;5.30;;;;;;;12.83;90.99;98972.97;5014703;28;20252;-84
2022/04/13 01:12:01;;;;;;;9.40;5.07;;;;;;;12.67;92.98;98982.22;5014923;28;20195;-84
2022/04/13 01:14:28;;;;;;;9.73;5.65;;;;;;;12.56;94.29;98984.03;5014613;28;20190;-83
2022/04/13 01:16:55;;;;;;;7.55;5.40;;;;;;;12.53;94.83;98990.53;5014571;28;20215;-83
2022/04/13 01:19:21;;;;;;;9.48;5.55;;;;;;;12.58;94.85;98985.63;5014772;28;20195;-83
2022/04/13 01:21:52;;;;;;;7.95;5.40;;;;;;;12.49;94.86;98973.69;5014514;28;20557;-84
2022/04/13 01:24:22;;;;;;;5.28;4.10;;;;;;;12.34;94.44;98977.53;5014312;28;20218;-84
2022/04/13 01:26:48;;;;;;;9.27;4.70;;;;;;;12.30;96.63;98976.03;5014500;28;20600;-83
2022/04/13 01:29:15;;;;;;;13.57;6.00;;;;;;;12.23;98.56;98981.06;5014568;28;20206;-84
2022/04/13 01:31:42;;;;;;;7.15;5.53;;;;;;;12.12;100.00;98977.44;5014093;28;20194;-83
2022/04/13 01:34:09;;;;;;;7.95;5.53;;;;;;;12.16;100.00;98981.63;5014005;28;20210;-83
2022/04/13 01:36:36;;;;;;;7.22;5.13;;;;;;;11.98;100.00;98983.84;5014230;28;20214;-82
2022/04/13 01:39:04;;;;;;;9.57;6.15;;;;;;;12.06;100.00;98984.16;5014131;28;20647;-83
2022/04/13 01:41:33;;;;;;;10.60;5.57;;;;;;;11.95;100.00;98984.09;5013756;28;20214;-83
2022/04/13 01:43:59;;;;;;;8.80;5.25;;;;;;;11.91;100.00;98996.94;5014136;28;20686;-83
2022/04/13 01:46:26;;;;;;;8.48;4.88;;;;;;;12.00;100.00;98990.84;5013770;28;20222;-84
2022/04/13 01:48:52;;;;;;;9.75;5.40;;;;;;;11.98;100.00;98994.66;5013936;28;20189;-83
2022/04/13 01:51:20;;;;;;;13.45;6.85;;;;;;;11.94;100.00;98990.44;5014204;28;20207;-83
2022/04/13 01:53:47;;;;;;;10.52;6.03;;;;;;;12.00;100.00;99001.66;5014109;28;20213;-83
2022/04/13 01:56:14;;;;;;;9.88;6.38;;;;;;;12.20;100.00;99002.88;5013882;28;20241;-83
2022/04/13 01:58:42;;;;;;;11.88;5.90;;;;;;;12.06;100.00;99003.91;5013806;28;20187;-83
2022/04/13 02:01:08;;;;;;;14.63;5.70;;;;;;;12.20;100.00;99002.03;5013658;28;20187;-83
2022/04/13 02:03:35;;;;;;;7.05;5.32;;;;;;;12.21;99.90;99001.03;5013993;28;20213;-84
2022/04/13 02:06:03;;;;;;;8.45;5.85;;;;;;;12.08;100.00;99001.09;5013987;28;20529;-83
2022/04/13 02:08:30;;;;;;;7.45;5.68;;;;;;;12.04;100.00;99005.00;5013937;28;20203;-83
2022/04/13 02:10:57;;;;;;;12.95;5.97;;;;;;;12.02;100.00;99009.63;5013949;28;20198;-84
2022/04/13 02:13:23;;;;;;;9.77;5.30;;;;;;;11.98;100.00;99009.00;5013891;28;20203;-83
2022/04/13 02:15:51;;;;;;;10.07;5.60;;;;;;;12.08;100.00;99010.06;5013868;28;20302;-83
2022/04/13 02:18:18;;;;;;;11.48;5.68;;;;;;;11.96;100.00;99010.06;5013829;28;20206;-83
2022/04/13 02:20:45;;;;;;;8.85;5.88;;;;;;;11.94;100.00;99004.81;5013076;28;20186;-83
2022/04/13 02:23:11;;;;;;;8.02;5.30;;;;;;;11.93;100.00;99003.06;5012677;28;20202;-83
2022/04/13 02:25:38;;;;;;;10.43;5.80;;;;;;;11.97;100.00;99001.03;5013812;28;20297;-83
2022/04/13 02:28:05;;;;;;;13.13;5.15;;;;;;;11.96;100.00;99005.56;5013294;28;20216;-84
2022/04/13 02:30:32;;;;;;;9.63;5.75;;;;;;;11.80;100.00;99005.78;5013660;28;20570;-83
2022/04/13 02:33:01;;;;;;;10.00;5.88;;;;;;;11.85;100.00;99003.63;5014174;28;20252;-83
2022/04/13 02:35:28;;;;;;;7.05;5.32;;;;;;;11.92;100.00;99006.75;5013173;28;20233;-83
2022/04/13 02:37:54;;;;;;;7.70;5.15;;;;;;;11.81;100.00;98996.72;5013336;28;20191;-83
2022/04/13 02:40:21;;;;;;;9.55;5.45;;;;;;;11.73;100.00;98999.09;5013461;28;20190;-83
2022/04/13 02:42:48;;;;;;;8.77;5.85;;;;;;;11.65;100.00;99005.06;5013344;28;20217;-83
2022/04/13 02:45:14;;;;;;;7.95;4.88;;;;;;;11.60;100.00;99003.66;5013136;28;20194;-83
2022/04/13 02:47:41;;;;;;;10.35;5.50;;;;;;;11.56;100.00;99003.03;5013235;28;20191;-83
2022/04/13 02:50:10;;;;;;;7.10;5.60;;;;;;;11.50;100.00;99006.16;5013357;28;20555;-83
2022/04/13 02:52:36;;;;;;;7.82;4.97;;;;;;;11.54;100.00;99007.66;5013027;28;20194;-83
2022/04/13 02:55:04;;;;;;;8.57;5.00;;;;;;;11.43;100.00;99010.25;5013022;28;20241;-83
2022/04/13 02:57:30;;;;;;;7.50;5.07;;;;;;;11.38;100.00;99012.44;5013181;28;20206;-83
2022/04/13 02:59:57;;;;;;;6.72;4.72;;;;;;;11.42;100.00;99013.94;5013190;28;20198;-83
2022/04/13 03:02:29;;;;;;;10.43;5.25;;;;;;;11.42;100.00;99012.09;5013066;28;20187;-82
2022/04/13 03:04:55;;;;;;;6.07;4.78;;;;;;;11.41;100.00;99006.81;5013148;28;20183;-82
2022/04/13 03:07:25;;;;;;;6.93;4.65;;;;;;;11.32;100.00;99018.25;5013086;28;20198;-83
2022/04/13 03:09:52;;;;;;;8.73;4.70;;;;;;;11.28;100.00;99012.19;5013018;28;20191;-83
2022/04/13 03:12:19;;;;;;;8.48;5.10;;;;;;;11.26;100.00;99006.03;5013652;28;20293;-83
2022/04/13 03:14:45;;;;;;;10.30;5.50;;;;;;;11.24;100.00;99005.31;5012831;28;20206;-83
2022/04/13 03:17:12;;;;;;;7.60;5.30;;;;;;;11.27;100.00;98999.69;5013292;28;20653;-83
2022/04/13 03:19:38;;;;;;;7.20;4.43;;;;;;;11.27;100.00;99011.34;5013241;28;20183;-83
2022/04/13 03:22:05;;;;;;;9.02;4.15;;;;;;;11.32;100.00;99000.22;5012903;28;20203;-84
2022/04/13 03:24:34;;;;;;;13.00;5.05;;;;;;;11.38;100.00;99004.34;5013120;28;20191;-84
2022/04/13 03:27:01;;;;;;;8.43;4.45;;;;;;;11.56;100.00;99004.88;5011475;28;20194;-84
2022/04/13 03:29:27;;;;;;;9.88;3.83;;;;;;;11.45;100.00;99001.09;5000798;28;20195;-83
2022/04/13 03:31:54;;;;;;;7.60;4.45;;;;;;;11.56;100.00;99010.25;5012937;28;20618;-83
2022/04/13 03:34:21;;;;;;;10.57;4.55;;;;;;;11.39;100.00;99004.22;5016702;28;20625;-83
2022/04/13 03:36:48;;;;;;;8.10;4.30;;;;;;;11.22;100.00;99000.03;5016040;28;20214;-83
2022/04/13 03:39:15;;;;;;;7.55;5.00;;;;;;;11.13;100.00;99005.22;5016466;28;20191;-83
2022/04/13 03:41:43;;;;;;;9.57;4.82;;;;;;;11.11;100.00;98999.91;5014239;28;20183;-84
2022/04/13 03:44:10;;;;;;;10.35;4.93;;;;;;;11.36;100.00;99006.28;5009659;28;20543;-84
2022/04/13 03:46:36;;;;;;;5.30;4.55;;;;;;;11.44;100.00;99006.56;4999066;28;20195;-84
2022/04/13 03:49:03;;;;;;;6.57;4.68;;;;;;;11.57;100.00;99015.50;4996734;28;20596;-84
2022/04/13 03:51:30;;;;;;;9.98;5.13;;;;;;;11.60;100.00;99018.00;4996562;28;20206;-84
2022/04/13 03:53:56;;;;;;;7.97;4.95;;;;;;;11.55;100.00;99022.84;5015680;28;20197;-84
2022/04/13 03:56:23;;;;;;;8.10;4.55;;;;;;;11.45;100.00;99011.88;5015727;28;20689;-84
2022/04/13 03:58:51;;;;;;;8.48;5.88;;;;;;;11.27;100.00;99018.56;5011205;28;20558;-83
2022/04/13 04:01:18;;;;;;;6.78;5.07;;;;;;;11.33;100.00;99025.34;5001051;28;20289;-83
2022/04/13 04:03:44;;;;;;;10.23;5.35;;;;;;;11.42;100.00;99028.28;5015874;28;20226;-83
2022/04/13 04:06:11;;;;;;;7.05;5.53;;;;;;;11.43;100.00;99032.69;4998096;28;20206;-82
2022/04/13 04:08:38;;;;;;;7.43;4.65;;;;;;;11.46;100.00;99035.19;4996241;28;20201;-83
2022/04/13 04:11:04;;;;;;;6.55;4.53;;;;;;;11.50;100.00;99041.19;5014762;28;20299;-83
2022/04/13 04:13:31;;;;;;;6.75;4.40;;;;;;;11.37;100.00;99034.94;5015846;28;20635;-83
2022/04/13 04:16:00;;;;;;;8.75;4.68;;;;;;;11.25;100.00;99044.75;5015587;28;20218;-83
2022/04/13 04:18:27;;;;;;;6.05;4.25;;;;;;;11.30;100.00;99047.97;5015809;28;20197;-83
2022/04/13 04:20:53;;;;;;;8.77;4.53;;;;;;;11.26;100.00;99043.78;4997014;28;20654;-83
2022/04/13 04:23:20;;;;;;;13.10;5.60;;;;;;;11.21;100.00;99041.41;4996258;28;20187;-83
2022/04/13 04:25:47;;;;;;;7.97;4.78;;;;;;;11.10;100.00;99038.59;4996196;28;20210;-83
2022/04/13 04:28:14;;;;;;;11.15;6.45;;;;;;;11.04;100.00;99042.56;4995918;28;20626;-83
2022/04/13 04:30:41;;;;;;;9.35;5.57;;;;;;;11.21;100.00;99048.63;5009740;28;20191;-83
2022/04/13 04:33:12;;;;;;;10.20;5.20;;;;;;;11.26;100.00;99046.47;5015310;28;20198;-84
2022/04/13 04:35:40;;;;;;;7.15;5.03;;;;;;;11.35;100.00;99048.53;5015050;28;20191;-83
2022/04/13 04:38:06;;;;;;;16.52;5.35;;;;;;;11.29;100.00;99051.66;5006393;28;20203;-83
2022/04/13 04:40:33;;;;;;;9.95;5.20;;;;;;;11.16;100.00;99042.69;4995389;28;20198;-82
2022/04/13 04:42:59;;;;;;;9.77;5.43;;;;;;;11.35;100.00;99042.28;4996497;28;20693;-83
2022/04/13 04:45:26;;;;;;;11.15;5.28;;;;;;;11.48;100.00;99052.06;4995824;28;20283;-83
2022/04/13 04:47:53;;;;;;;9.55;5.88;;;;;;;11.61;100.00;99056.63;5006606;28;20277;-83
2022/04/13 04:50:23;;;;;;;6.97;4.70;;;;;;;11.66;100.00;99055.31;5015220;28;20194;-83
2022/04/13 04:52:50;;;;;;;7.93;5.65;;;;;;;11.76;100.00;99065.44;5015121;28;20223;-83
2022/04/13 04:55:19;;;;;;;11.60;5.20;;;;;;;11.74;100.00;99070.97;5014546;28;20239;-83
2022/04/13 04:57:46;;;;;;;8.70;5.18;;;;;;;11.69;100.00;99063.19;5005461;28;20207;-84
2022/04/13 05:00:15;;;;;;;9.40;4.78;;;;;;;11.61;100.00;99070.94;4994996;28;20213;-83
2022/04/13 05:02:41;;;;;;;10.05;4.90;;;;;;;11.62;100.00;99074.50;4995007;28;20194;-83
2022/04/13 05:05:09;;;;;;;9.77;5.05;;;;;;;11.41;100.00;99069.66;4994854;28;20191;-83
2022/04/13 05:07:37;;;;;;;8.90;4.75;;;;;;;11.27;100.00;99069.78;5003552;28;20195;-83
2022/04/13 05:10:04;;;;;;;9.70;5.25;;;;;;;11.28;100.00;99060.69;5014763;28;20925;-83
2022/04/13 05:12:30;;;;;;;8.60;5.22;;;;;;;11.36;100.00;99065.56;5014670;28;20226;-84
2022/04/13 05:14:57;;;;;;;6.13;4.47;;;;;;;11.19;100.00;99054.13;5014718;28;20225;-83
2022/04/13 05:17:24;;;;;;;11.80;8.25;;;;;;;11.29;100.00;99059.75;5009354;28;20199;-83
2022/04/13 05:19:51;;;;;;;10.40;6.20;;;;;;;11.41;100.00;99048.09;4995052;28;20982;-83
2022/04/13 05:22:17;;;;;;;8.00;6.20;;;;;;;11.33;100.00;99053.19;4994715;28;20776;-83
2022/04/13 05:24:45;;;;;;;13.05;6.05;;;;;;;11.42;100.00;99060.63;4995086;28;20196;-84
2022/04/13 05:27:12;;;;;;;8.05;5.55;;;;;;;11.70;100.00;99058.66;4997909;28;20273;-83
2022/04/13 05:29:38;;;;;;;11.40;6.00;;;;;;;12.01;99.06;99064.59;5012924;28;20994;-85
2022/04/13 05:32:05;;;;;;;11.52;6.28;;;;;;;11.94;98.67;99071.38;5014103;28;20540;-84
2022/04/13 05:34:32;;;;;;;8.38;5.35;;;;;;;12.02;98.21;99069.00;5013724;28;20271;-84
2022/04/13 05:36:59;;;;;;;7.40;5.45;;;;;;;12.06;97.41;99084.00;4997234;28;20261;-83
2022/04/13 05:39:26;;;;;;;6.80;5.45;;;;;;;11.97;97.92;99088.22;5009146;28;20582;-83
2022/04/13 05:41:54;;;;;;;8.82;5.63;;;;;;;11.83;100.00;99091.88;5013941;28;20206;-83
2022/04/13 05:44:20;;;;;;;13.35;8.18;;;;;;;11.96;100.00;99099.09;5013579;28;20203;-83
2022/04/13 05:46:47;;;;;;;10.25;5.40;;;;;;;11.85;99.49;99097.16;5013580;28;20183;-83
2022/04/13 05:49:14;;;;;;;10.88;6.15;;;;;;;11.83;100.00;99097.28;5013697;28;20653;-83
2022/04/13 05:51:40;;;;;;;17.25;7.28;;;;;;;11.89;100.00;99102.28;5013761;28;20192;-83
2022/04/13 05:54:07;;;;;;;12.43;5.88;;;;;;;12.05;100.00;99111.94;5013394;28;20192;-84
2022/04/13 05:56:34;;;;;;;12.32;6.10;;;;;;;12.24;100.00;99111.47;5011190;28;20223;-84
2022/04/13 05:59:02;;;;;;;15.85;10.18;;;;;;;12.34;98.24;99117.94;5013319;28;20198;-84
2022/04/13 06:01:28;;;;;;;13.25;7.22;;;;;;;12.48;96.11;99119.59;5012763;28;20281;-83
2022/04/13 06:03:55;;;;;;;12.98;6.13;;;;;;;12.61;93.98;99123.13;5013401;28;20210;-84
2022/04/13 06:06:25;;;;;;;13.07;7.25;;;;;;;12.58;93.27;99131.47;5013513;28;20202;-84
2022/04/13 06:08:52;;;;;;;10.65;6.07;;;;;;;12.54;93.05;99123.72;5013233;28;20202;-83
2022/04/13 06:11:18;;;;;;;9.98;6.90;;;;;;;12.68;93.01;99129.78;5010013;28;20213;-84
2022/04/13 06:13:45;;;;;;;8.93;6.72;;;;;;;12.76;93.83;99136.50;5010508;28;20323;-83
2022/04/13 06:16:13;;;;;;;11.73;6.88;;;;;;;12.91;94.39;99135.31;4994998;28;20214;-83
2022/04/13 06:18:40;;;;;;;11.38;6.93;;;;;;;13.01;93.79;99138.22;5004435;28;20210;-83
2022/04/13 06:21:08;;;;;;;13.75;8.52;;;;;;;13.19;92.94;99134.09;5012171;28;20192;-84
2022/04/13 06:23:34;;;;;;;16.55;8.00;;;;;;;13.33;92.18;99135.78;4998662;28;20940;-83
2022/04/13 06:26:01;;;;;;;10.63;7.10;;;;;;;13.34;91.80;99135.69;5006138;28;20207;-83
2022/04/13 06:28:28;;;;;;;13.77;7.30;;;;;;;13.68;89.44;99138.47;5013272;28;20521;-83
2022/04/13 06:30:54;;;;;;;11.48;8.52;;;;;;;13.72;87.02;99139.94;5013191;28;20319;-83
2022/04/13 06:33:22;;;;;;;9.73;6.90;;;;;;;13.98;84.44;99139.72;4998042;28;20539;-84
2022/04/13 06:35:49;;;;;;;11.68;7.15;;;;;;;14.23;80.95;99151.31;4994269;28;20190;-83
2022/04/13 06:38:15;;;;;;;13.77;6.75;;;;;;;14.67;76.99;99150.41;5012202;28;20455;-84
2022/04/13 06:40:42;;;;;;;11.35;6.80;;;;;;;14.80;75.79;99148.41;5010948;28;20208;-83
2022/04/13 06:43:08;;;;;;;12.48;7.10;;;;;;;14.64;78.09;99147.97;4997364;28;20197;-83
2022/04/13 06:45:36;;;;;;;9.48;6.50;;;;;;;14.39;79.10;99157.22;4993417;28;20199;-83
2022/04/13 06:48:03;;;;;;;14.95;6.95;;;;;;;14.49;79.03;99165.44;5001999;28;20887;-83
2022/04/13 06:50:31;;;;;;;13.57;6.65;;;;;;;14.56;78.28;99162.16;5012525;28;20234;-83
2022/04/13 06:52:58;;;;;;;19.15;8.65;;;;;;;14.39;79.95;99162.63;5012601;28;20647;-84
2022/04/13 06:55:24;;;;;;;14.70;5.88;;;;;;;14.25;81.08;99163.75;5012214;28;20242;-83
2022/04/13 06:57:51;;;;;;;11.43;6.70;;;;;;;14.30;79.78;99172.34;4994167;28;20213;-83
2022/04/13 07:00:18;;;;;;;11.32;6.63;;;;;;;14.19;80.69;99165.06;4993212;28;20217;-82
2022/04/13 07:02:44;;;;;;;12.30;6.97;;;;;;;14.00;81.99;99172.97;4992667;28;20194;-83
2022/04/13 07:05:11;;;;;;;11.75;6.80;;;;;;;14.31;80.65;99174.09;4992714;28;20301;-83
2022/04/13 07:07:41;;;;;;;11.25;7.22;;;;;;;14.57;78.05;99174.69;5005838;28;20259;-83
2022/04/13 07:10:08;;;;;;;12.07;6.70;;;;;;;14.58;77.76;99178.25;5006278;28;20194;-84
2022/04/13 07:12:36;;;;;;;11.23;5.82;;;;;;;14.78;75.97;99176.63;5012641;28;20205;-84
2022/04/13 07:15:02;;;;;;;10.35;5.82;;;;;;;14.84;73.75;99183.41;4997689;28;20560;-84
2022/04/13 07:17:29;;;;;;;13.88;7.13;;;;;;;14.95;70.79;99173.41;4996264;28;20202;-83
2022/04/13 07:19:56;;;;;;;11.98;6.18;;;;;;;15.05;70.30;99168.06;4996851;28;20286;-83
2022/04/13 07:22:23;;;;;;;14.18;6.20;;;;;;;15.25;69.11;99162.84;4996711;28;20213;-84
2022/04/13 07:24:51;;;;;;;17.90;11.70;;;;;;;15.66;67.12;99172.00;5010447;28;20584;-83
2022/04/13 07:27:18;;;;;;;9.77;5.40;;;;;;;16.00;63.96;99176.25;5016058;28;20203;-82
2022/04/13 07:29:45;;;;;;;7.22;4.95;;;;;;;16.01;63.12;99180.72;5009749;28;20190;-85
2022/04/13 07:32:11;;;;;;;9.65;5.32;;;;;;;16.00;61.34;99183.53;4997485;28;20220;-84
2022/04/13 07:34:38;;;;;;;9.15;5.05;;;;;;;16.21;60.46;99183.50;5009147;28;20206;-84
2022/04/13 07:37:05;;;;;;;15.65;5.22;;;;;;;16.41;59.25;99179.88;5002603;28;20214;-84
2022/04/13 07:39:32;;;;;;;7.90;5.30;;;;;;;16.65;57.09;99175.97;5016216;28;20706;-83
2022/04/13 07:42:00;;;;;;;9.65;5.32;;;;;;;16.72;56.77;99174.44;5006730;28;20188;-83
2022/04/13 07:44:26;;;;;;;7.35;5.15;;;;;;;16.77;55.69;99179.44;5007241;28;20198;-83
2022/04/13 07:46:53;;;;;;;11.73;4.50;;;;;;;16.78;53.46;99173.00;4996390;28;20192;-84
2022/04/13 07:49:21;;;;;;;9.25;5.47;;;;;;;16.82;53.14;99178.06;5008140;28;20210;-83
2022/04/13 07:51:48;;;;;;;10.13;4.75;;;;;;;16.89;52.81;99178.34;5014607;28;20271;-83
2022/04/13 07:54:14;;;;;;;9.20;5.20;;;;;;;16.97;51.08;99185.81;5013682;28;20195;-83
2022/04/13 07:56:41;;;;;;;7.68;5.05;;;;;;;17.25;50.75;99185.03;5013512;28;20230;-83
2022/04/13 07:59:09;;;;;;;14.02;4.05;;;;;;;17.57;48.50;99183.00;5002600;28;20291;-83
2022/04/13 08:01:35;;;;;;;9.73;4.57;;;;;;;17.62;48.35;99189.75;5006709;28;20188;-85
2022/04/13 08:04:02;;;;;;;8.75;4.47;;;;;;;17.70;47.62;99184.44;4996137;28;20656;-84
2022/04/13 08:06:29;;;;;;;9.65;4.30;;;;;;;17.82;47.02;99190.63;5014135;28;20193;-84
2022/04/13 08:08:56;;;;;;;10.18;3.80;;;;;;;18.07;46.02;99199.19;5015713;28;20204;-85
2022/04/13 08:11:23;;;;;;;6.97;3.92;;;;;;;18.28;45.38;99207.16;4999039;28;20198;-84
2022/04/13 08:13:49;;;;;;;7.15;4.40;;;;;;;18.31;45.49;99199.53;4995869;28;20193;-84
2022/04/13 08:16:17;;;;;;;7.70;5.53;;;;;;;18.32;45.73;99203.13;5007553;28;20219;-84
2022/04/13 08:18:45;;;;;;;5.75;3.95;;;;;;;18.22;45.57;99196.84;5014478;28;20235;-85
2022/04/13 08:21:11;;;;;;;5.95;4.00;;;;;;;17.99;46.56;99199.91;5011885;28;20695;-85
2022/04/13 08:23:38;;;;;;;7.68;4.32;;;;;;;18.10;46.99;99196.16;5012975;28;20239;-84
2022/04/13 08:26:04;;;;;;;9.73;5.22;;;;;;;18.23;46.89;99190.41;5011963;28;20190;-84
2022/04/13 08:28:31;;;;;;;9.52;5.72;;;;;;;18.34;46.96;99198.41;4995474;28;20198;-84
2022/04/13 08:30:57;;;;;;;12.73;4.22;;;;;;;18.17;47.23;99197.28;4996726;28;20664;-85
2022/04/13 08:33:26;;;;;;;8.68;4.00;;;;;;;18.32;47.35;99205.84;4996330;28;20623;-85
2022/04/13 08:35:53;;;;;;;7.50;4.40;;;;;;;18.67;46.81;99207.00;4995497;28;20621;-84
2022/04/13 08:38:19;;;;;;;8.32;3.53;;;;;;;18.71;46.16;99202.97;4995319;28;20225;-84
2022/04/13 08:40:52;;;;;;;7.97;4.40;;;;;;;18.75;46.24;99209.84;5011634;28;20197;-84
2022/04/13 08:43:26;;;;;;;5.75;3.15;;;;;;;18.80;46.05;99215.72;5013825;28;20194;-84
2022/04/13 08:45:55;;;;;;;4.93;3.50;;;;;;;19.19;44.97;99212.78;5014470;28;20202;-84
2022/04/13 08:48:23;;;;;;;12.93;4.45;;;;;;;19.13;44.91;99207.91;5007707;28;20630;-84
2022/04/13 08:50:58;;;;;;;9.98;3.30;;;;;;;19.05;45.04;99218.75;4995231;28;20302;-83
2022/04/13 08:53:30;;;;;;;8.35;4.35;;;;;;;19.40;44.66;99219.81;5004818;28;20288;-80
2022/04/13 08:55:58;;;;;;;9.27;4.50;;;;;;;19.36;45.09;99219.28;4994580;28;20245;-83
2022/04/13 08:58:35;;;;;;;6.80;4.30;;;;;;;19.30;45.23;99215.28;5010408;28;20216;-80
2022/04/13 09:01:05;;;;;;;5.63;3.53;;;;;;;19.16;45.25;99213.09;5018056;28;20186;-81
2022/04/13 09:03:38;;;;;;;4.75;3.58;;;;;;;19.21;45.34;99215.34;5018157;28;20275;-82
2022/04/13 09:06:08;;;;;;;6.53;4.13;;;;;;;19.20;45.55;99200.84;5019495;28;20187;-84
2022/04/13 09:08:47;;;;;;;6.82;4.07;;;;;;;19.40;45.04;99206.16;5019876;28;20629;-82
2022/04/13 09:11:14;;;;;;;5.43;3.40;;;;;;;19.17;45.56;99204.75;5023586;28;20189;-83
2022/04/13 09:13:43;;;;;;;7.72;3.65;;;;;;;19.15;45.71;99208.63;5022045;28;20190;-81
2022/04/13 09:16:10;;;;;;;5.75;3.40;;;;;;;19.45;44.74;99207.44;5023312;28;20545;-83
2022/04/13 09:18:37;;;;;;;5.68;3.60;;;;;;;19.94;43.99;99215.22;5019691;28;20203;-83
2022/04/13 09:21:03;;;;;;;5.10;3.27;;;;;;;20.18;43.21;99212.66;5019475;28;20647;-83
2022/04/13 09:23:32;;;;;;;9.60;3.53;;;;;;;20.00;43.32;99200.94;5006653;28;20870;-83
2022/04/13 09:25:59;;;;;;;6.17;3.30;;;;;;;20.19;43.21;99208.94;5019255;28;20437;-83
2022/04/13 09:28:26;;;;;;;10.10;3.90;;;;;;;20.58;42.42;99208.50;5019456;28;20440;-82
2022/04/13 09:30:54;;;;;;;4.57;3.90;;;;;;;20.88;42.18;99205.41;5019069;28;20515;-83
2022/04/13 09:33:20;;;;;;;7.93;3.97;;;;;;;21.09;41.29;99224.97;5018840;28;20445;-84
2022/04/13 09:35:47;;;;;;;6.67;3.70;;;;;;;21.25;40.77;99226.91;5020352;28;20506;-83
2022/04/13 09:38:16;;;;;;;8.37;4.13;;;;;;;21.28;41.22;99226.59;5023348;28;20472;-84
2022/04/13 09:40:44;;;;;;;8.53;3.60;;;;;;;21.52;40.55;99228.53;5016167;28;20484;-84
2022/04/13 09:43:12;;;;;;;5.47;3.33;;;;;;;21.54;40.62;99231.13;5016955;28;20428;-80
2022/04/13 09:45:41;;;;;;;6.73;3.20;;;;;;;21.61;40.36;99227.53;5024830;28;20448;-82
2022/04/13 09:48:10;;;;;;;5.43;3.77;;;;;;;21.49;40.44;99225.28;5020146;28;20451;-84
2022/04/13 09:50:37;;;;;;;10.57;4.40;;;;;;;21.49;40.55;99231.63;5022874;28;20469;-83
2022/04/13 09:53:06;;;;;;;6.00;3.10;;;;;;;20.73;42.05;99238.84;5026196;28;20447;-83
2022/04/13 09:55:39;;;;;;;5.23;3.30;;;;;;;20.81;42.03;99221.63;5019029;28;20472;-84
2022/04/13 09:58:10;;;;;;;6.33;3.17;;;;;;;20.92;41.99;99229.53;5018207;28;20466;-84
2022/04/13 10:00:38;;;;;;;8.37;3.60;;;;;;;20.95;41.78;99225.59;5018213;28;20516;-84
2022/04/13 10:03:10;;;;;;;4.13;3.30;;;;;;;21.14;41.39;99225.34;5018769;28;20952;-84
2022/04/13 10:05:37;;;;;;;6.47;3.20;;;;;;;21.18;41.54;99226.72;5015673;28;20443;-85
2022/04/13 10:08:05;;;;;;;5.33;3.30;;;;;;;21.48;40.84;99218.09;5017652;28;20512;-83
2022/04/13 10:10:32;;;;;;;6.93;3.63;;;;;;;21.86;40.13;99214.69;5015974;28;20431;-84
2022/04/13 10:12:59;;;;;;;5.17;3.30;;;;;;;21.99;39.98;99219.66;5017870;28;20456;-85
2022/04/13 10:15:27;;;;;;;6.17;2.97;;;;;;;21.58;40.38;99219.66;5023642;28;20432;-84
2022/04/13 10:17:59;;;;;;;10.20;3.30;;;;;;;21.65;41.16;99222.56;5010991;28;20473;-86
2022/04/13 10:20:41;;;;;;;8.80;3.70;;;;;;;21.99;40.53;99227.03;5016586;28;20449;-85
2022/04/13 10:23:08;;;;;;;7.80;3.73;;;;;;;21.78;40.69;99235.78;5019083;28;20438;-84
2022/04/13 10:25:35;;;;;;;7.00;2.70;;;;;;;22.13;40.24;99220.00;5017087;28;20461;-85
2022/04/13 10:28:02;;;;;;;3.77;2.70;;;;;;;21.69;40.89;99223.94;5021635;28;20994;-85
2022/04/13 10:30:32;;;;;;;4.27;2.60;;;;;;;22.00;40.32;99221.41;5020900;28;20527;-85
2022/04/13 10:33:00;;;;;;;4.60;2.93;;;;;;;22.26;39.83;99220.38;5018393;28;20587;-85
2022/04/13 10:35:28;;;;;;;7.93;3.13;;;;;;;21.93;40.48;99223.09;5017670;28;20452;-83
2022/04/13 10:37:55;;;;;;;12.50;3.00;;;;;;;21.91;40.36;99221.56;5032192;28;20496;-84
2022/04/13 10:40:23;;;;;;;4.77;2.70;;;;;;;22.12;39.95;99219.16;5027034;28;20446;-85
2022/04/13 10:42:51;;;;;;;7.33;3.50;;;;;;;22.20;40.05;99224.63;5020460;28;20433;-85
2022/04/13 10:45:19;;;;;;;9.67;3.50;;;;;;;22.40;39.56;99224.28;5032503;28;20540;-85
2022/04/13 10:47:53;;;;;;;6.70;2.80;;;;;;;22.11;40.00;99220.16;5015175;28;20519;-86
2022/04/13 10:50:30;;;;;;;29.23;4.37;;;;;;;22.52;39.23;99227.50;5018543;28;20451;-85
2022/04/13 10:52:59;;;;;;;5.80;2.93;;;;;;;22.87;38.64;99217.97;5018352;28;20794;-85
2022/04/13 10:55:29;;;;;;;8.30;2.67;;;;;;;22.84;38.69;99210.13;5029364;28;20547;-84
2022/04/13 10:58:01;;;;;;;5.67;3.33;;;;;;;22.51;39.28;99218.44;5025551;28;20833;-83
2022/04/13 11:00:31;;;;;;;7.30;3.10;;;;;;;22.88;38.38;99215.06;5028902;28;20447;-84
2022/04/13 11:03:03;;;;;;;10.90;3.70;;;;;;;23.13;37.89;99208.63;5022282;28;20433;-86
2022/04/13 11:05:31;;;;;;;8.10;4.20;;;;;;;23.44;37.44;99203.97;5019226;28;20528;-84
2022/04/13 11:08:10;;;;;;;13.80;5.00;;;;;;;23.67;36.92;99203.13;5020295;28;20845;-86
2022/04/13 11:10:38;;;;;;;6.20;3.20;;;;;;;23.43;36.84;99195.94;5022246;28;20968;-85
2022/04/13 11:13:05;;;;;;;8.40;3.30;;;;;;;23.57;36.79;99197.03;5028261;28;20472;-85
2022/04/13 11:15:40;;;;;;;13.77;3.37;;;;;;;23.46;36.79;99201.06;5026838;28;20440;-84
2022/04/13 11:18:13;;;;;;;6.07;2.97;;;;;;;22.92;37.70;99201.81;5022806;28;20571;-83
2022/04/13 11:21:04;;;;;;;8.03;3.17;;;;;;;23.17;37.51;99204.50;5023043;28;20456;-85
2022/04/13 11:23:47;;;;;;;10.33;3.53;;;;;;;23.59;36.39;99200.47;5021171;28;20440;-84
2022/04/13 11:26:14;;;;;;;7.93;3.40;;;;;;;23.26;37.16;99190.53;5026887;28;20444;-85
2022/04/13 11:28:41;;;;;;;6.80;3.13;;;;;;;23.10;36.44;99196.97;5020541;28;20519;-85